createdAt,value
2023-01-10T00:02:41.949Z,75.21
2023-01-10T00:05:39.672Z,75.23
2023-01-10T00:08:37.343Z,75.28
2023-01-10T00:11:52.828Z,75.29
2023-01-10T00:14:50.602Z,75.21
2023-01-10T00:17:48.061Z,75.22
2023-01-10T00:20:46.411Z,75.30
2023-01-10T00:23:44.295Z,75.23
2023-01-10T00:26:44.506Z,75.18
2023-01-10T00:29:42.408Z,75.18
2023-01-10T00:32:39.860Z,75.13
2023-01-10T00:35:37.596Z,75.12
2023-01-10T00:38:35.096Z,75.17
2023-01-10T00:41:55.903Z,75.14
2023-01-10T00:44:53.463Z,75.10
2023-01-10T00:47:51.351Z,75.13
2023-01-10T00:50:48.776Z,75.25
2023-01-10T00:53:46.767Z,75.29
2023-01-10T00:56:44.225Z,75.29
2023-01-10T00:59:42.093Z,75.29
2023-01-10T01:02:39.935Z,75.37
2023-01-10T01:05:37.944Z,75.43
2023-01-10T01:08:35.639Z,75.52
2023-01-10T01:11:33.052Z,75.64
2023-01-10T01:14:30.701Z,75.72
2023-01-10T01:17:28.154Z,75.91
2023-01-10T01:20:25.954Z,75.99
2023-01-10T01:23:23.391Z,75.90
2023-01-10T01:26:21.283Z,75.97
2023-01-10T01:29:18.714Z,76.03
2023-01-10T01:32:16.500Z,76.12
2023-01-10T01:35:14.464Z,76.25
2023-01-10T01:38:11.925Z,76.34
2023-01-10T01:41:29.523Z,76.39
2023-01-10T01:44:26.952Z,76.26
2023-01-10T01:47:25.524Z,76.24
2023-01-10T01:50:22.946Z,76.28
2023-01-10T01:53:21.256Z,76.27
2023-01-10T01:56:18.895Z,76.37
2023-01-10T01:59:16.322Z,76.41
2023-01-10T02:02:14.640Z,76.37
2023-01-10T02:05:12.158Z,76.38
2023-01-10T02:08:09.803Z,76.44
2023-01-10T02:11:08.595Z,76.57
2023-01-10T02:14:06.186Z,76.70
2023-01-10T02:17:04.321Z,76.78
2023-01-10T02:20:01.840Z,76.86
2023-01-10T02:23:00.055Z,76.81
2023-01-10T02:25:57.506Z,76.88
2023-01-10T02:28:55.280Z,76.90
2023-01-10T02:31:52.740Z,76.92
2023-01-10T02:34:50.505Z,76.94
2023-01-10T02:37:48.116Z,76.90
2023-01-10T02:40:45.822Z,76.90
2023-01-10T02:43:43.241Z,76.90
2023-01-10T02:46:41.132Z,76.83
2023-01-10T02:49:38.843Z,76.91
2023-01-10T02:52:36.287Z,77.02
2023-01-10T02:55:33.914Z,76.97
2023-01-10T02:58:31.358Z,77.00
2023-01-10T03:01:29.047Z,77.09
2023-01-10T03:04:26.957Z,77.14
2023-01-10T03:07:24.727Z,77.10
2023-01-10T03:10:22.441Z,77.05
2023-01-10T03:13:19.868Z,76.88
2023-01-10T03:16:17.582Z,76.85
2023-01-10T03:19:15.043Z,77.02
2023-01-10T03:22:12.840Z,76.82
2023-01-10T03:25:10.280Z,76.84
2023-01-10T03:28:07.976Z,76.79
2023-01-10T03:31:05.457Z,76.83
2023-01-10T03:34:03.298Z,76.90
2023-01-10T03:37:00.988Z,76.83
2023-01-10T03:39:58.408Z,76.81
2023-01-10T03:43:13.788Z,76.79
2023-01-10T03:46:11.326Z,76.93
2023-01-10T03:49:09.076Z,76.77
2023-01-10T03:52:06.800Z,76.62
2023-01-10T03:55:05.488Z,76.60
2023-01-10T03:58:03.107Z,76.65
2023-01-10T04:01:00.745Z,76.64
2023-01-10T04:03:58.612Z,76.63
2023-01-10T04:06:56.098Z,76.75
2023-01-10T04:09:53.793Z,76.82
2023-01-10T04:12:51.217Z,76.91
2023-01-10T04:15:48.931Z,76.94
2023-01-10T04:18:46.352Z,76.90
2023-01-10T04:21:44.028Z,76.86
2023-01-10T04:24:41.478Z,76.89
2023-01-10T04:27:39.156Z,77.07
2023-01-10T04:30:36.865Z,77.18
2023-01-10T04:33:34.310Z,77.25
2023-01-10T04:36:31.923Z,77.37
2023-01-10T04:39:29.352Z,77.37
2023-01-10T04:42:27.092Z,77.35
2023-01-10T04:45:24.611Z,77.48
2023-01-10T04:48:22.271Z,77.51
2023-01-10T04:51:19.711Z,77.47
2023-01-10T04:54:17.315Z,77.62
2023-01-10T04:57:14.744Z,77.61
2023-01-10T05:00:13.696Z,77.57
2023-01-10T05:03:11.206Z,77.54
2023-01-10T05:06:08.918Z,77.69
2023-01-10T05:09:06.521Z,77.80
2023-01-10T05:12:03.961Z,77.94
2023-01-10T05:15:02.206Z,78.00
2023-01-10T05:17:59.727Z,77.97
2023-01-10T05:20:57.549Z,77.97
2023-01-10T05:23:54.983Z,78.00
2023-01-10T05:26:52.773Z,78.09
2023-01-10T05:29:50.192Z,78.04
2023-01-10T05:32:47.894Z,78.07
2023-01-10T05:35:45.329Z,78.03
2023-01-10T05:38:43.021Z,78.16
2023-01-10T05:41:40.615Z,78.29
2023-01-10T05:44:38.244Z,78.35
2023-01-10T05:47:35.691Z,78.39
2023-01-10T05:50:33.501Z,78.43
2023-01-10T05:53:30.929Z,78.51
2023-01-10T05:56:29.628Z,78.53
2023-01-10T05:59:28.640Z,78.62
2023-01-10T06:02:26.841Z,78.66
2023-01-10T06:05:24.476Z,78.70
2023-01-10T06:08:22.531Z,78.66
2023-01-10T06:11:19.962Z,78.70
2023-01-10T06:14:19.708Z,78.72
2023-01-10T06:17:17.137Z,78.74
2023-01-10T06:20:14.932Z,78.69
2023-01-10T06:23:12.396Z,78.69
2023-01-10T06:26:10.156Z,78.62
2023-01-10T06:29:07.614Z,78.60
2023-01-10T06:32:05.335Z,78.69
2023-01-10T06:35:02.891Z,78.60
2023-01-10T06:38:00.909Z,78.60
2023-01-10T06:40:58.364Z,78.58
2023-01-10T06:43:56.021Z,78.64
2023-01-10T06:46:53.472Z,78.58
2023-01-10T06:49:51.284Z,78.47
2023-01-10T06:52:48.714Z,78.47
2023-01-10T06:55:46.469Z,78.51
2023-01-10T06:58:43.921Z,78.63
2023-01-10T07:01:41.747Z,78.57
2023-01-10T07:04:39.191Z,78.45
2023-01-10T07:07:36.966Z,78.47
2023-01-10T07:10:34.825Z,78.51
2023-01-10T07:13:32.271Z,78.51
2023-01-10T07:16:30.092Z,78.49
2023-01-10T07:19:27.624Z,78.45
2023-01-10T07:22:25.386Z,78.39
2023-01-10T07:25:22.812Z,78.40
2023-01-10T07:28:20.509Z,78.34
2023-01-10T07:31:17.997Z,78.40
2023-01-10T07:34:16.461Z,78.37
2023-01-10T07:37:13.912Z,78.40
2023-01-10T07:40:11.695Z,78.40
2023-01-10T07:43:09.135Z,78.36
2023-01-10T07:46:08.561Z,78.36
2023-01-10T07:49:05.989Z,78.34
2023-01-10T07:52:03.782Z,78.24
2023-01-10T07:55:01.216Z,78.15
2023-01-10T07:58:00.132Z,78.19
2023-01-10T08:00:57.644Z,78.23
2023-01-10T08:03:55.488Z,78.28
2023-01-10T08:06:52.913Z,78.35
2023-01-10T08:09:50.609Z,78.30
2023-01-10T08:12:48.374Z,78.32
2023-01-10T08:15:47.705Z,78.38
2023-01-10T08:18:45.169Z,78.33
2023-01-10T08:21:42.873Z,78.26
2023-01-10T08:24:40.304Z,78.15
2023-01-10T08:27:38.010Z,78.06
2023-01-10T08:30:35.644Z,78.06
2023-01-10T08:33:33.136Z,78.05
2023-01-10T08:36:31.117Z,78.01
2023-01-10T08:39:28.551Z,78.02
2023-01-10T08:42:26.520Z,77.79
2023-01-10T08:45:23.945Z,77.68
2023-01-10T08:48:21.662Z,77.56
2023-01-10T08:51:19.139Z,77.53
2023-01-10T08:54:16.784Z,77.36
2023-01-10T08:57:14.234Z,77.40
2023-01-10T09:00:12.539Z,77.27
2023-01-10T09:03:10.371Z,76.99
2023-01-10T09:06:08.510Z,76.78
2023-01-10T09:09:06.548Z,76.48
2023-01-10T09:12:23.968Z,76.39
2023-01-10T09:15:22.038Z,76.29
2023-01-10T09:18:21.335Z,76.19
2023-01-10T09:21:19.803Z,76.14
2023-01-10T09:24:17.258Z,76.10
2023-01-10T09:27:14.852Z,75.77
2023-01-10T09:30:12.309Z,75.70
2023-01-10T09:33:10.170Z,75.57
2023-01-10T09:36:10.276Z,75.43
2023-01-10T09:39:07.787Z,75.38
2023-01-10T09:42:05.544Z,75.08
2023-01-10T09:45:02.972Z,74.97
2023-01-10T09:48:00.727Z,74.77
2023-01-10T09:50:58.164Z,74.68
2023-01-10T09:54:06.630Z,74.61
2023-01-10T09:57:07.976Z,74.54
2023-01-10T10:00:05.732Z,74.25
2023-01-10T10:03:03.634Z,74.22
2023-01-10T10:06:11.518Z,74.08
2023-01-10T10:09:09.896Z,73.96
2023-01-10T10:12:07.323Z,73.68
2023-01-10T10:15:05.637Z,73.56
2023-01-10T10:18:03.311Z,73.41
2023-01-10T10:21:00.746Z,73.20
2023-01-10T10:23:58.523Z,73.06
2023-01-10T10:26:55.984Z,72.85
2023-01-10T10:29:53.774Z,72.82
2023-01-10T10:32:51.835Z,72.70
2023-01-10T10:35:49.603Z,72.76
2023-01-10T10:38:47.345Z,72.59
2023-01-10T10:41:44.796Z,72.43
2023-01-10T10:44:42.505Z,72.30
2023-01-10T10:47:39.948Z,72.23
2023-01-10T10:50:38.221Z,72.03
2023-01-10T10:53:35.948Z,71.73
2023-01-10T10:56:33.393Z,71.30
2023-01-10T10:59:31.120Z,71.03
2023-01-10T11:02:28.546Z,70.91
2023-01-10T11:05:26.332Z,70.85
2023-01-10T11:08:24.176Z,70.76
2023-01-10T11:11:21.862Z,70.60
2023-01-10T11:14:19.842Z,70.44
2023-01-10T11:17:17.307Z,70.21
2023-01-10T11:20:14.974Z,69.86
2023-01-10T11:23:12.413Z,69.63
2023-01-10T11:26:10.117Z,69.50
2023-01-10T11:29:07.627Z,69.03
2023-01-10T11:32:06.013Z,69.05
2023-01-10T11:35:03.510Z,69.09
2023-01-10T11:38:01.885Z,69.16
2023-01-10T11:41:00.643Z,68.95
2023-01-10T11:43:58.062Z,68.72
2023-01-10T11:46:55.681Z,68.53
2023-01-10T11:49:53.215Z,68.32
2023-01-10T11:52:50.883Z,68.23
2023-01-10T11:55:48.321Z,68.05
2023-01-10T11:58:46.055Z,67.93
2023-01-10T12:01:43.736Z,67.94
2023-01-10T12:04:41.761Z,67.78
2023-01-10T12:07:39.461Z,67.61
2023-01-10T12:10:36.873Z,67.71
2023-01-10T12:13:34.577Z,67.32
2023-01-10T12:16:32.063Z,66.89
2023-01-10T12:19:29.712Z,66.51
2023-01-10T12:22:27.686Z,66.18
2023-01-10T12:25:25.156Z,66.03
2023-01-10T12:28:22.739Z,65.79
2023-01-10T12:31:20.488Z,65.65
2023-01-10T12:34:20.617Z,65.18
2023-01-10T12:37:18.060Z,64.79
2023-01-10T12:40:15.708Z,64.54
2023-01-10T12:43:31.414Z,64.47
2023-01-10T12:47:00.191Z,64.44
2023-01-10T12:49:46.504Z,64.22
2023-01-10T12:52:46.116Z,63.83
2023-01-10T12:55:43.525Z,63.58
2023-01-10T12:58:43.275Z,63.63
2023-01-10T13:01:42.499Z,63.72
2023-01-10T13:04:41.685Z,63.22
2023-01-10T13:07:39.103Z,63.28
2023-01-10T13:10:36.907Z,63.27
2023-01-10T13:13:35.207Z,63.12
2023-01-10T13:16:32.714Z,63.20
2023-01-10T13:19:30.421Z,63.38
2023-01-10T13:22:27.867Z,63.36
2023-01-10T13:25:25.654Z,63.30
2023-01-10T13:28:23.410Z,63.31
2023-01-10T13:31:20.863Z,63.34
2023-01-10T13:34:18.690Z,63.22
2023-01-10T13:37:16.132Z,63.38
2023-01-10T13:40:13.737Z,63.49
2023-01-10T13:43:20.179Z,63.49
2023-01-10T13:46:17.860Z,63.52
2023-01-10T13:49:15.349Z,63.60
2023-01-10T13:52:13.061Z,63.79
2023-01-10T13:55:10.471Z,63.77
2023-01-10T13:58:08.270Z,63.78
2023-01-10T14:01:23.689Z,63.79
2023-01-10T14:04:21.322Z,63.81
2023-01-10T14:07:19.072Z,63.77
2023-01-10T14:10:16.503Z,63.92
2023-01-10T14:13:14.162Z,63.88
2023-01-10T14:16:11.625Z,63.87
2023-01-10T14:19:09.549Z,63.99
2023-01-10T14:22:06.998Z,64.13
2023-01-10T14:25:04.752Z,64.28
2023-01-10T14:28:02.421Z,64.40
2023-01-10T14:30:59.873Z,64.51
2023-01-10T14:33:57.641Z,64.60
2023-01-10T14:36:55.101Z,64.64
2023-01-10T14:39:56.358Z,64.70
2023-01-10T14:42:56.049Z,64.83
2023-01-10T14:45:53.477Z,64.97
2023-01-10T14:48:51.855Z,64.93
2023-01-10T14:51:50.734Z,64.98
2023-01-10T14:54:48.440Z,65.07
2023-01-10T14:57:45.894Z,65.25
2023-01-10T15:00:43.692Z,65.42
2023-01-10T15:03:41.120Z,65.59
2023-01-10T15:06:38.756Z,65.78
2023-01-10T15:09:36.223Z,65.93
2023-01-10T15:12:33.690Z,66.04
2023-01-10T15:15:31.435Z,66.18
2023-01-10T15:18:29.123Z,66.23
2023-01-10T15:21:27.071Z,66.68
2023-01-10T15:24:24.954Z,67.43
2023-01-10T15:27:22.417Z,67.80
2023-01-10T15:30:20.127Z,68.18
2023-01-10T15:33:17.561Z,68.55
2023-01-10T15:36:15.205Z,68.57
2023-01-10T15:39:12.852Z,68.74
2023-01-10T15:42:10.725Z,69.04
2023-01-10T15:45:08.179Z,69.32
2023-01-10T15:48:06.299Z,69.65
2023-01-10T15:51:06.277Z,69.89
2023-01-10T15:54:07.609Z,69.88
2023-01-10T15:57:07.013Z,69.91
2023-01-10T16:00:04.451Z,69.93
2023-01-10T16:03:02.510Z,69.92
2023-01-10T16:05:59.990Z,69.91
2023-01-10T16:08:57.769Z,69.72
2023-01-10T16:12:13.169Z,69.75
2023-01-10T16:15:10.650Z,69.67
2023-01-10T16:18:08.489Z,69.43
2023-01-10T16:21:05.943Z,69.28
2023-01-10T16:24:03.690Z,69.08
2023-01-10T16:27:03.180Z,68.96
2023-01-10T16:30:00.977Z,68.84
2023-01-10T16:32:59.217Z,68.70
2023-01-10T16:35:56.677Z,68.69
2023-01-10T16:38:54.387Z,68.46
2023-01-10T16:42:09.747Z,68.30
2023-01-10T16:45:07.415Z,68.27
2023-01-10T16:48:04.853Z,68.27
2023-01-10T16:51:02.771Z,68.22
2023-01-10T16:54:00.372Z,68.21
2023-01-10T16:56:57.813Z,68.32
2023-01-10T16:59:55.643Z,68.45
2023-01-10T17:02:53.109Z,68.57
2023-01-10T17:05:51.292Z,68.72
2023-01-10T17:08:49.688Z,68.76
2023-01-10T17:11:47.564Z,68.89
2023-01-10T17:14:44.996Z,69.07
2023-01-10T17:17:45.425Z,69.23
2023-01-10T17:20:42.895Z,69.32
2023-01-10T17:23:42.187Z,69.48
2023-01-10T17:26:39.967Z,69.54
2023-01-10T17:29:37.423Z,69.60
2023-01-10T17:32:35.311Z,69.64
2023-01-10T17:35:33.199Z,69.67
2023-01-10T17:38:31.000Z,69.49
2023-01-10T17:41:28.479Z,69.32
2023-01-10T17:44:26.242Z,69.30
2023-01-10T17:47:23.691Z,69.22
2023-01-10T17:50:21.420Z,69.20
2023-01-10T17:53:19.467Z,69.15
2023-01-10T17:56:16.902Z,68.95
2023-01-10T17:59:14.507Z,68.78
2023-01-10T18:02:12.076Z,68.81
2023-01-10T18:05:10.163Z,68.74
2023-01-10T18:08:08.238Z,68.62
2023-01-10T18:11:06.274Z,68.65
2023-01-10T18:14:24.056Z,68.71
2023-01-10T18:17:21.590Z,68.67
2023-01-10T18:20:21.450Z,68.72
2023-01-10T18:23:26.137Z,68.57
2023-01-10T18:26:24.455Z,68.40
2023-01-10T18:29:22.184Z,68.38
2023-01-10T18:32:19.933Z,68.18
2023-01-10T18:35:17.394Z,68.18
2023-01-10T18:38:15.907Z,68.05
2023-01-10T18:41:16.049Z,68.04
2023-01-10T18:44:14.791Z,68.13
2023-01-10T18:47:12.756Z,68.39
2023-01-10T18:50:13.089Z,68.64
2023-01-10T18:53:11.513Z,68.76
2023-01-10T18:56:09.374Z,68.88
2023-01-10T18:59:07.722Z,68.99
2023-01-10T19:02:06.021Z,69.10
2023-01-10T19:05:08.638Z,69.15
2023-01-10T19:08:06.157Z,69.15
2023-01-10T19:11:13.555Z,69.15
2023-01-10T19:14:12.802Z,69.17
2023-01-10T19:17:11.625Z,69.18
2023-01-10T19:20:11.036Z,69.16
2023-01-10T19:23:09.601Z,69.10
2023-01-10T19:26:07.057Z,69.03
2023-01-10T19:29:07.086Z,68.96
2023-01-10T19:32:05.469Z,68.97
2023-01-10T19:35:04.579Z,68.95
2023-01-10T19:38:02.637Z,69.05
2023-01-10T19:41:00.996Z,69.10
2023-01-10T19:44:00.649Z,69.06
2023-01-10T19:46:58.763Z,69.07
2023-01-10T19:49:57.415Z,69.07
2023-01-10T19:52:56.345Z,69.08
2023-01-10T19:55:55.300Z,69.12
2023-01-10T19:58:54.113Z,69.01
2023-01-10T20:01:52.556Z,68.90
2023-01-10T20:04:50.591Z,68.78
2023-01-10T20:07:48.863Z,68.70
2023-01-10T20:10:47.939Z,68.64
2023-01-10T20:13:46.830Z,68.60
2023-01-10T20:16:45.674Z,68.50
2023-01-10T20:19:44.921Z,68.52
2023-01-10T20:22:46.298Z,68.58
2023-01-10T20:25:47.977Z,68.64
2023-01-10T20:28:46.543Z,68.66
2023-01-10T20:31:48.275Z,68.60
2023-01-10T20:34:48.001Z,68.51
2023-01-10T20:37:45.465Z,68.47
2023-01-10T20:40:43.764Z,68.36
2023-01-10T20:43:41.613Z,68.27
2023-01-10T20:46:40.299Z,68.05
2023-01-10T20:49:37.747Z,67.87
2023-01-10T20:52:35.737Z,67.63
2023-01-10T20:55:33.180Z,67.26
2023-01-10T20:58:31.148Z,67.03
2023-01-10T21:01:34.473Z,66.91
2023-01-10T21:04:33.520Z,66.81
2023-01-10T21:07:30.947Z,66.66
2023-01-10T21:10:28.770Z,66.54
2023-01-10T21:13:26.397Z,66.58
2023-01-10T21:16:25.570Z,66.45
2023-01-10T21:19:23.203Z,66.49
2023-01-10T21:22:21.058Z,66.56
2023-01-10T21:25:18.482Z,66.65
2023-01-10T21:28:16.301Z,66.84
2023-01-10T21:31:14.161Z,66.91
2023-01-10T21:34:12.747Z,66.76
2023-01-10T21:37:11.414Z,66.63
2023-01-10T21:40:09.858Z,66.26
2023-01-10T21:43:09.482Z,66.22
2023-01-10T21:46:09.370Z,66.03
2023-01-10T21:49:07.494Z,65.88
2023-01-10T21:52:06.235Z,65.59
2023-01-10T21:55:04.279Z,65.32
2023-01-10T21:58:03.329Z,65.29
2023-01-10T22:01:01.510Z,65.22
2023-01-10T22:04:00.328Z,65.06
2023-01-10T22:06:58.630Z,64.92
2023-01-10T22:09:58.766Z,64.83
2023-01-10T22:12:56.883Z,64.84
2023-01-10T22:15:54.950Z,64.80
2023-01-10T22:18:52.949Z,64.57
2023-01-10T22:21:50.391Z,64.50
2023-01-10T22:24:48.514Z,64.51
2023-01-10T22:27:45.957Z,64.49
2023-01-10T22:30:43.820Z,64.22
2023-01-10T22:33:42.869Z,64.19
2023-01-10T22:36:40.926Z,64.10
2023-01-10T22:39:38.873Z,63.93
2023-01-10T22:42:36.309Z,63.78
2023-01-10T22:45:34.344Z,63.81
2023-01-10T22:48:31.809Z,63.78
2023-01-10T22:51:31.352Z,63.77
2023-01-10T22:54:28.789Z,63.87
2023-01-10T22:57:28.771Z,63.85
2023-01-10T23:00:26.360Z,63.78
2023-01-10T23:03:24.076Z,63.81
2023-01-10T23:06:21.520Z,63.79
2023-01-10T23:09:19.017Z,63.81
2023-01-10T23:12:17.423Z,63.83
2023-01-10T23:15:14.913Z,63.88
2023-01-10T23:18:12.709Z,63.80
2023-01-10T23:21:10.082Z,63.78
2023-01-10T23:24:08.001Z,63.80
2023-01-10T23:27:05.383Z,63.74
2023-01-10T23:30:03.127Z,63.67
2023-01-10T23:33:00.480Z,63.70
2023-01-10T23:35:58.262Z,63.71
2023-01-10T23:38:55.673Z,63.79
2023-01-10T23:41:53.576Z,63.88
2023-01-10T23:44:50.959Z,63.96
2023-01-10T23:47:49.046Z,64.11
2023-01-10T23:50:46.420Z,64.24
2023-01-10T23:53:44.320Z,64.38
2023-01-10T23:56:41.681Z,64.50
2023-01-10T23:59:39.555Z,64.60
